createdAt,value
2022-11-08T00:01:26.640Z,3.42
2022-11-08T00:04:28.290Z,2.70
2022-11-08T00:07:29.952Z,2.80
2022-11-08T00:10:31.551Z,2.90
2022-11-08T00:13:33.089Z,3.17
2022-11-08T00:16:34.784Z,3.38
2022-11-08T00:19:36.310Z,3.22
2022-11-08T00:22:37.877Z,3.40
2022-11-08T00:25:39.404Z,3.20
2022-11-08T00:28:41.004Z,2.67
2022-11-08T00:31:43.656Z,2.60
2022-11-08T00:34:45.887Z,2.95
2022-11-08T00:37:47.418Z,2.70
2022-11-08T00:40:48.968Z,4.07
2022-11-08T00:43:50.498Z,2.90
2022-11-08T00:46:52.846Z,3.80
2022-11-08T00:49:54.372Z,3.35
2022-11-08T00:52:55.872Z,3.30
2022-11-08T00:56:02.405Z,3.47
2022-11-08T00:59:04.082Z,3.17
2022-11-08T01:02:05.697Z,3.83
2022-11-08T01:05:07.602Z,3.60
2022-11-08T01:08:09.986Z,3.45
2022-11-08T01:11:15.530Z,3.10
2022-11-08T01:14:16.951Z,3.88
2022-11-08T01:17:18.397Z,3.80
2022-11-08T01:20:20.017Z,3.72
2022-11-08T01:23:21.447Z,3.40
2022-11-08T01:26:26.289Z,3.83
2022-11-08T01:29:27.705Z,3.65
2022-11-08T01:32:29.160Z,3.60
2022-11-08T01:35:32.212Z,3.50
2022-11-08T01:38:33.983Z,3.65
2022-11-08T01:41:35.403Z,3.58
2022-11-08T01:45:04.708Z,3.47
2022-11-08T01:48:06.289Z,3.42
2022-11-08T01:51:11.667Z,3.53
2022-11-08T01:54:20.376Z,3.72
2022-11-08T01:57:27.905Z,3.95
2022-11-08T02:00:29.829Z,3.83
2022-11-08T02:03:34.358Z,3.67
2022-11-08T02:06:38.639Z,4.10
2022-11-08T02:09:42.278Z,3.88
2022-11-08T02:12:43.791Z,3.67
2022-11-08T02:15:45.372Z,3.55
2022-11-08T02:18:48.597Z,4.10
2022-11-08T02:21:55.879Z,3.92
2022-11-08T02:24:57.623Z,3.47
2022-11-08T02:27:59.019Z,3.70
2022-11-08T02:31:00.434Z,3.53
2022-11-08T02:34:01.917Z,3.38
2022-11-08T02:37:04.304Z,4.10
2022-11-08T02:40:06.383Z,4.22
2022-11-08T02:43:07.769Z,4.50
2022-11-08T02:46:09.574Z,4.25
2022-11-08T02:49:11.008Z,3.55
2022-11-08T02:52:12.717Z,4.60
2022-11-08T02:55:14.181Z,4.75
2022-11-08T02:58:16.309Z,3.90
2022-11-08T03:01:18.096Z,4.05
2022-11-08T03:04:19.557Z,4.38
2022-11-08T03:07:24.821Z,4.55
2022-11-08T03:10:27.821Z,4.28
2022-11-08T03:13:29.276Z,4.85
2022-11-08T03:16:30.699Z,4.28
2022-11-08T03:19:32.144Z,3.97
2022-11-08T03:22:33.565Z,4.25
2022-11-08T03:25:34.986Z,4.15
2022-11-08T03:28:36.442Z,4.20
2022-11-08T03:31:37.859Z,4.10
2022-11-08T03:34:39.350Z,4.25
2022-11-08T03:37:40.851Z,4.10
2022-11-08T03:40:42.691Z,4.40
2022-11-08T03:43:44.088Z,4.90
2022-11-08T03:46:45.467Z,4.88
2022-11-08T03:49:46.894Z,4.78
2022-11-08T03:52:53.213Z,4.63
2022-11-08T03:55:54.868Z,4.65
2022-11-08T03:58:56.330Z,4.72
2022-11-08T04:01:57.858Z,5.32
2022-11-08T04:04:59.374Z,4.70
2022-11-08T04:08:01.538Z,4.18
2022-11-08T04:11:02.942Z,4.03
2022-11-08T04:14:04.385Z,3.70
2022-11-08T04:17:05.810Z,3.80
2022-11-08T04:20:08.661Z,3.60
2022-11-08T04:23:10.077Z,3.55
2022-11-08T04:26:11.702Z,3.33
2022-11-08T04:29:13.199Z,3.80
2022-11-08T04:32:14.608Z,3.13
2022-11-08T04:35:16.020Z,3.30
2022-11-08T04:38:18.416Z,3.70
2022-11-08T04:41:24.614Z,3.65
2022-11-08T04:44:26.009Z,3.55
2022-11-08T04:47:28.057Z,3.83
2022-11-08T04:50:29.509Z,3.63
2022-11-08T04:53:31.119Z,3.70
2022-11-08T04:56:32.880Z,3.90
2022-11-08T04:59:34.313Z,3.78
2022-11-08T05:02:35.842Z,3.85
2022-11-08T05:05:37.328Z,3.60
2022-11-08T05:08:38.968Z,3.33
2022-11-08T05:11:40.396Z,3.83
2022-11-08T05:14:41.824Z,3.55
2022-11-08T05:17:43.241Z,2.90
2022-11-08T05:20:44.674Z,3.67
2022-11-08T05:23:47.543Z,3.33
2022-11-08T05:26:48.969Z,3.30
2022-11-08T05:29:50.363Z,3.38
2022-11-08T05:32:51.815Z,2.95
2022-11-08T05:35:53.283Z,3.15
2022-11-08T05:38:55.454Z,3.28
2022-11-08T05:41:56.882Z,3.35
2022-11-08T05:44:58.309Z,3.30
2022-11-08T05:47:59.708Z,3.28
2022-11-08T05:51:01.636Z,3.67
2022-11-08T05:54:03.088Z,3.40
2022-11-08T05:57:04.500Z,3.25
2022-11-08T06:00:06.552Z,3.25
2022-11-08T06:03:13.057Z,4.10
2022-11-08T06:06:17.794Z,3.22
2022-11-08T06:09:19.256Z,2.80
2022-11-08T06:12:20.709Z,2.90
2022-11-08T06:15:22.122Z,2.70
2022-11-08T06:18:23.534Z,2.97
2022-11-08T06:21:24.941Z,2.40
2022-11-08T06:24:26.378Z,3.05
2022-11-08T06:27:28.102Z,2.60
2022-11-08T06:30:29.703Z,2.63
2022-11-08T06:33:31.903Z,2.58
2022-11-08T06:36:33.326Z,2.92
2022-11-08T06:39:34.760Z,3.17
2022-11-08T06:42:36.156Z,2.83
2022-11-08T06:45:38.257Z,2.33
2022-11-08T06:48:39.660Z,2.95
2022-11-08T06:51:41.086Z,2.42
2022-11-08T06:54:42.491Z,2.50
2022-11-08T06:57:43.913Z,2.90
2022-11-08T07:00:45.325Z,2.40
2022-11-08T07:03:46.866Z,2.13
2022-11-08T07:06:48.325Z,2.25
2022-11-08T07:09:49.743Z,2.40
2022-11-08T07:12:59.777Z,1.95
2022-11-08T07:16:01.892Z,2.40
2022-11-08T07:19:03.337Z,2.25
2022-11-08T07:22:04.780Z,2.40
2022-11-08T07:25:06.859Z,2.38
2022-11-08T07:28:14.150Z,2.35
2022-11-08T07:31:15.749Z,2.10
2022-11-08T07:34:17.152Z,1.95
2022-11-08T07:37:18.597Z,2.08
2022-11-08T07:40:20.464Z,2.30
2022-11-08T07:43:21.984Z,2.00
2022-11-08T07:46:23.679Z,1.88
2022-11-08T07:49:25.101Z,1.85
2022-11-08T07:52:26.745Z,2.17
2022-11-08T07:55:28.180Z,2.00
2022-11-08T07:58:29.563Z,2.08
2022-11-08T08:01:31.021Z,1.80
2022-11-08T08:04:32.602Z,1.52
2022-11-08T08:07:37.698Z,1.80
2022-11-08T08:10:40.150Z,2.15
2022-11-08T08:13:41.592Z,1.90
2022-11-08T08:16:43.021Z,1.83
2022-11-08T08:19:44.464Z,2.08
2022-11-08T08:22:50.736Z,1.95
2022-11-08T08:25:52.590Z,1.70
2022-11-08T08:28:54.285Z,1.70
2022-11-08T08:31:55.886Z,1.73
2022-11-08T08:34:57.426Z,2.00
2022-11-08T08:38:00.024Z,1.65
2022-11-08T08:41:02.114Z,1.77
2022-11-08T08:44:03.692Z,1.75
2022-11-08T08:47:05.120Z,1.85
2022-11-08T08:50:06.861Z,1.60
2022-11-08T08:53:08.316Z,1.95
2022-11-08T08:56:09.869Z,1.80
2022-11-08T09:02:32.694Z,2.20
2022-11-08T09:05:35.013Z,1.85
2022-11-08T09:08:36.474Z,1.85
2022-11-08T09:11:37.996Z,2.25
2022-11-08T09:14:39.445Z,1.80
2022-11-08T09:17:40.878Z,1.92
2022-11-08T09:20:42.338Z,1.95
2022-11-08T09:23:43.751Z,1.90
2022-11-08T09:26:45.305Z,2.17
2022-11-08T09:29:46.720Z,2.10
2022-11-08T09:33:03.942Z,1.67
2022-11-08T09:36:07.686Z,1.90
2022-11-08T09:39:09.097Z,1.92
2022-11-08T09:42:29.029Z,1.63
2022-11-08T09:45:43.219Z,1.80
2022-11-08T09:48:45.513Z,2.00
2022-11-08T09:51:48.842Z,1.73
2022-11-08T09:54:53.871Z,2.20
2022-11-08T09:57:58.244Z,1.90
2022-11-08T10:00:59.908Z,2.00
2022-11-08T10:04:07.981Z,2.20
2022-11-08T10:07:32.330Z,2.10
2022-11-08T10:10:39.697Z,2.10
2022-11-08T10:13:56.865Z,1.80
2022-11-08T10:17:15.031Z,2.05
2022-11-08T10:20:32.704Z,2.35
2022-11-08T10:23:54.716Z,2.00
2022-11-08T10:26:58.876Z,2.20
2022-11-08T10:33:21.952Z,2.05
2022-11-08T10:36:29.411Z,2.25
2022-11-08T10:39:39.025Z,2.13
2022-11-08T10:42:44.996Z,1.70
2022-11-08T10:45:46.440Z,2.40
2022-11-08T10:48:47.946Z,1.75
2022-11-08T10:51:54.694Z,1.90
2022-11-08T10:54:58.554Z,1.73
2022-11-08T10:58:00.338Z,2.10
2022-11-08T11:01:04.766Z,1.90
2022-11-08T11:04:26.358Z,1.80
2022-11-08T11:07:35.823Z,1.67
2022-11-08T11:10:41.395Z,2.05
2022-11-08T11:13:42.803Z,1.90
2022-11-08T11:17:05.351Z,1.90
2022-11-08T11:20:19.050Z,2.10
2022-11-08T11:23:20.550Z,1.83
2022-11-08T11:26:40.904Z,1.80
2022-11-08T11:29:42.345Z,1.73
2022-11-08T11:32:58.139Z,2.17
2022-11-08T11:36:15.379Z,2.05
2022-11-08T11:39:24.911Z,1.85
2022-11-08T11:42:47.009Z,2.38
2022-11-08T11:45:58.356Z,2.30
2022-11-08T11:49:13.125Z,2.42
2022-11-08T11:52:17.465Z,1.90
2022-11-08T11:55:20.138Z,2.28
2022-11-08T11:58:49.423Z,2.03
2022-11-08T12:02:05.843Z,2.08
2022-11-08T12:05:39.535Z,3.15
2022-11-08T12:08:40.898Z,2.17
2022-11-08T12:12:01.383Z,1.92
2022-11-08T12:15:23.195Z,1.95
2022-11-08T12:18:49.435Z,1.85
2022-11-08T12:22:08.271Z,1.80
2022-11-08T12:25:40.480Z,1.73
2022-11-08T12:28:54.171Z,1.77
2022-11-08T12:32:35.403Z,1.85
2022-11-08T12:35:50.571Z,1.63
2022-11-08T12:39:10.281Z,1.90
2022-11-08T12:42:14.696Z,2.60
2022-11-08T12:45:35.097Z,2.08
2022-11-08T12:48:52.581Z,2.20
2022-11-08T12:52:16.082Z,1.73
2022-11-08T12:55:24.369Z,2.15
2022-11-08T12:58:34.580Z,2.30
2022-11-08T13:01:36.823Z,2.25
2022-11-08T13:04:44.088Z,2.33
2022-11-08T13:07:59.047Z,2.45
2022-11-08T13:11:05.688Z,1.80
2022-11-08T13:14:14.270Z,2.20
2022-11-08T13:17:24.608Z,2.10
2022-11-08T13:20:44.238Z,2.22
2022-11-08T13:23:45.716Z,2.08
2022-11-08T13:26:47.253Z,2.00
2022-11-08T13:29:50.087Z,2.20
2022-11-08T13:33:06.853Z,2.38
2022-11-08T13:37:00.971Z,2.03
2022-11-08T13:40:10.810Z,2.10
2022-11-08T13:43:23.609Z,2.35
2022-11-08T13:46:24.972Z,2.30
2022-11-08T13:49:26.442Z,2.33
2022-11-08T13:53:01.142Z,2.08
2022-11-08T13:56:05.708Z,2.15
2022-11-08T13:59:32.186Z,1.80
2022-11-08T14:02:34.233Z,2.20
2022-11-08T14:05:46.447Z,1.90
2022-11-08T14:08:54.559Z,2.08
2022-11-08T14:12:13.422Z,2.22
2022-11-08T14:15:44.691Z,2.17
2022-11-08T14:18:46.111Z,2.15
2022-11-08T14:21:50.512Z,1.80
2022-11-08T14:24:54.443Z,2.20
2022-11-08T14:27:57.095Z,3.10
2022-11-08T14:31:00.325Z,2.10
2022-11-08T14:34:02.098Z,2.33
2022-11-08T14:37:05.936Z,2.15
2022-11-08T14:40:15.745Z,2.03
2022-11-08T14:43:18.362Z,2.38
2022-11-08T14:46:36.283Z,2.10
2022-11-08T14:49:37.682Z,2.30
2022-11-08T14:52:39.182Z,2.15
2022-11-08T14:55:40.726Z,1.70
2022-11-08T14:58:42.791Z,2.33
2022-11-08T15:01:47.645Z,1.95
2022-11-08T15:04:49.857Z,2.35
2022-11-08T15:07:51.444Z,2.10
2022-11-08T15:11:03.163Z,2.55
2022-11-08T15:14:07.998Z,2.38
2022-11-08T15:17:38.951Z,2.35
2022-11-08T15:20:52.451Z,2.30
2022-11-08T15:24:10.662Z,2.40
2022-11-08T15:27:12.036Z,2.15
2022-11-08T15:30:16.389Z,2.30
2022-11-08T15:33:23.360Z,2.38
2022-11-08T15:36:36.498Z,2.20
2022-11-08T15:39:40.835Z,2.20
2022-11-08T15:42:50.980Z,2.10
2022-11-08T15:45:53.460Z,2.20
2022-11-08T15:48:57.168Z,2.58
2022-11-08T15:51:58.604Z,2.60
2022-11-08T15:55:00.044Z,2.22
2022-11-08T15:58:01.569Z,2.70
2022-11-08T16:01:04.780Z,2.35
2022-11-08T16:04:11.608Z,2.73
2022-11-08T16:07:13.109Z,2.33
2022-11-08T16:10:16.862Z,2.40
2022-11-08T16:13:27.650Z,2.63
2022-11-08T16:16:34.049Z,2.50
2022-11-08T16:19:36.403Z,2.60
2022-11-08T16:22:37.787Z,3.53
2022-11-08T16:25:50.238Z,3.63
2022-11-08T16:28:51.692Z,4.00
2022-11-08T16:31:53.125Z,3.25
2022-11-08T16:34:54.525Z,3.67
2022-11-08T16:37:55.949Z,2.70
2022-11-08T16:40:57.359Z,2.75
2022-11-08T16:43:58.794Z,3.30
2022-11-08T16:47:00.196Z,2.85
2022-11-08T16:50:01.649Z,2.60
2022-11-08T16:53:03.051Z,2.90
2022-11-08T16:56:04.552Z,3.40
2022-11-08T16:59:05.985Z,2.95
2022-11-08T17:02:34.512Z,2.60
2022-11-08T17:05:35.919Z,2.80
2022-11-08T17:08:37.348Z,2.80
2022-11-08T17:11:38.992Z,3.30
2022-11-08T17:14:40.378Z,3.50
2022-11-08T17:17:42.616Z,2.67
2022-11-08T17:20:44.089Z,3.25
2022-11-08T17:23:45.540Z,3.58
2022-11-08T17:26:46.980Z,2.75
2022-11-08T17:29:48.639Z,3.10
2022-11-08T17:32:50.232Z,2.78
2022-11-08T17:35:51.685Z,2.95
2022-11-08T17:38:53.126Z,3.20
2022-11-08T17:41:54.535Z,3.30
2022-11-08T17:44:55.967Z,3.47
2022-11-08T17:47:57.394Z,3.85
2022-11-08T17:50:59.669Z,3.03
2022-11-08T17:54:01.082Z,3.33
2022-11-08T17:57:03.982Z,3.03
2022-11-08T18:00:10.680Z,2.83
2022-11-08T18:03:13.972Z,3.03
2022-11-08T18:06:15.401Z,3.60
2022-11-08T18:09:16.997Z,3.10
2022-11-08T18:12:18.472Z,3.08
2022-11-08T18:15:19.888Z,2.70
2022-11-08T18:18:21.385Z,3.42
2022-11-08T18:21:23.114Z,2.90
2022-11-08T18:24:24.516Z,2.88
2022-11-08T18:27:25.936Z,2.90
2022-11-08T18:30:27.432Z,3.10
2022-11-08T18:33:29.212Z,2.60
2022-11-08T18:36:30.861Z,3.33
2022-11-08T18:39:32.272Z,2.90
2022-11-08T18:42:33.748Z,3.17
2022-11-08T18:45:35.262Z,2.88
2022-11-08T18:48:37.316Z,2.97
2022-11-08T18:51:38.812Z,2.67
2022-11-08T18:54:41.393Z,2.90
2022-11-08T18:57:42.925Z,2.65
2022-11-08T19:00:44.351Z,2.60
2022-11-08T19:03:45.849Z,2.50
2022-11-08T19:06:51.621Z,3.05
2022-11-08T19:09:55.968Z,2.30
2022-11-08T19:12:57.651Z,2.08
2022-11-08T19:16:13.717Z,2.70
2022-11-08T19:19:15.132Z,2.90
2022-11-08T19:22:16.564Z,2.85
2022-11-08T19:25:17.982Z,2.13
2022-11-08T19:28:19.414Z,2.60
2022-11-08T19:31:22.921Z,2.88
2022-11-08T19:34:24.324Z,2.67
2022-11-08T19:37:25.719Z,2.70
2022-11-08T19:40:31.967Z,2.67
2022-11-08T19:43:34.668Z,2.85
2022-11-08T19:46:36.203Z,2.60
2022-11-08T19:49:37.647Z,2.78
2022-11-08T19:52:40.072Z,2.55
2022-11-08T19:55:41.500Z,2.90
2022-11-08T19:58:43.532Z,2.80
2022-11-08T20:01:45.105Z,2.78
2022-11-08T20:04:46.603Z,2.80
2022-11-08T20:07:48.055Z,2.90
2022-11-08T20:10:49.478Z,3.55
2022-11-08T20:13:51.396Z,3.60
2022-11-08T20:16:53.770Z,3.30
2022-11-08T20:19:55.365Z,3.03
2022-11-08T20:22:57.302Z,2.97
2022-11-08T20:26:04.377Z,2.85
2022-11-08T20:29:06.284Z,3.00
2022-11-08T20:32:07.762Z,2.90
2022-11-08T20:35:09.641Z,2.47
2022-11-08T20:38:11.154Z,2.58
2022-11-08T20:41:15.289Z,2.67
2022-11-08T20:47:19.126Z,2.30
2022-11-08T20:50:20.611Z,2.60
2022-11-08T20:53:22.018Z,2.50
2022-11-08T20:56:24.727Z,2.72
2022-11-08T20:59:26.441Z,3.08
2022-11-08T21:02:33.083Z,2.80
2022-11-08T21:05:34.685Z,3.17
2022-11-08T21:11:58.634Z,2.60
2022-11-08T21:15:00.037Z,2.70
2022-11-08T21:18:01.485Z,2.53
2022-11-08T21:21:02.830Z,3.00
2022-11-08T21:24:04.413Z,2.33
2022-11-08T21:27:05.853Z,2.42
2022-11-08T21:30:08.013Z,2.63
2022-11-08T21:33:09.450Z,2.58
2022-11-08T21:36:11.173Z,2.90
2022-11-08T21:39:12.748Z,2.72
2022-11-08T21:42:14.275Z,2.53
2022-11-08T21:45:15.862Z,2.50
2022-11-08T21:48:17.643Z,2.75
2022-11-08T21:51:19.389Z,2.53
2022-11-08T21:54:20.878Z,2.90
2022-11-08T21:57:22.330Z,2.92
2022-11-08T22:00:23.759Z,2.80
2022-11-08T22:03:25.193Z,3.20
2022-11-08T22:06:27.889Z,2.65
2022-11-08T22:09:29.544Z,2.83
2022-11-08T22:12:31.231Z,2.97
2022-11-08T22:15:32.691Z,3.08
2022-11-08T22:21:55.564Z,3.08
2022-11-08T22:24:56.999Z,2.67
2022-11-08T22:27:58.433Z,2.67
2022-11-08T22:30:59.860Z,2.67
2022-11-08T22:34:01.430Z,2.53
2022-11-08T22:37:03.003Z,2.58
2022-11-08T22:40:05.304Z,2.45
2022-11-08T22:43:06.970Z,2.40
2022-11-08T22:46:08.425Z,2.58
2022-11-08T22:49:10.804Z,2.42
2022-11-08T22:52:12.274Z,2.58
2022-11-08T22:55:13.702Z,2.42
2022-11-08T22:58:15.135Z,2.08
2022-11-08T23:01:16.620Z,2.13
2022-11-08T23:04:18.027Z,2.17
2022-11-08T23:07:19.512Z,2.35
2022-11-08T23:10:20.968Z,2.22
2022-11-08T23:13:22.429Z,2.13
2022-11-08T23:16:25.098Z,2.13
2022-11-08T23:19:26.568Z,2.28
2022-11-08T23:22:28.009Z,2.30
2022-11-08T23:25:29.568Z,2.20
2022-11-08T23:28:31.037Z,2.38
2022-11-08T23:31:32.531Z,2.00
2022-11-08T23:34:33.940Z,1.92
2022-11-08T23:37:35.386Z,2.10
2022-11-08T23:40:36.840Z,2.40
2022-11-08T23:43:38.234Z,2.05
2022-11-08T23:46:40.278Z,2.67
2022-11-08T23:49:41.672Z,2.10
2022-11-08T23:52:43.063Z,2.53
2022-11-08T23:55:44.572Z,2.03
2022-11-08T23:58:45.976Z,1.85
